Terminal Aerodrome Forecast
Issued by NWS New Orleans/Baton Rouge, LA

Home | Current Version | Previous Version | Text Only | Print | Product List | Glossary On
Versions: 1 2 3 4 5 6 7 8 9 10 11 12 13 14 15 16 17 18 19 20 21 22 23 24 25 26 27 28 29 30
000
FTUS44 KLIX 241120
TAFNEW
TAF
KNEW 241120Z 2412/2512 17005KT P6SM SCT015
      TEMPO 2412/2414 3SM BR BKN010
     FM241600 18008KT P6SM BKN035
     FM250500 23008KT P6SM OVC008
     FM250700 29010KT P6SM BKN010
     FM250900 33015KT P6SM BKN020
     FM251100 34016G24KT P6SM SCT090=

USA.gov is the U.S. government's official web portal to all federal, state and local government web resources and services.